sensor_id;sensor_type;location;lat;lon;timestamp;P1;durP1;ratioP1;P2;durP2;ratioP2
32521;SDS011;18963;51.504;5.316;2023-05-10T00:00:37;15.13;;;6.68;;
32521;SDS011;18963;51.504;5.316;2023-05-10T00:03:03;14.27;;;7.32;;
32521;SDS011;18963;51.504;5.316;2023-05-10T00:05:29;15.50;;;7.03;;
32521;SDS011;18963;51.504;5.316;2023-05-10T00:07:56;15.70;;;7.20;;
32521;SDS011;18963;51.504;5.316;2023-05-10T00:10:21;16.77;;;8.00;;
32521;SDS011;18963;51.504;5.316;2023-05-10T00:12:47;14.40;;;7.22;;
32521;SDS011;18963;51.504;5.316;2023-05-10T00:15:12;17.95;;;8.88;;
32521;SDS011;18963;51.504;5.316;2023-05-10T00:17:38;14.55;;;7.80;;
32521;SDS011;18963;51.504;5.316;2023-05-10T00:20:04;14.27;;;6.85;;
32521;SDS011;18963;51.504;5.316;2023-05-10T00:22:30;14.45;;;8.00;;
32521;SDS011;18963;51.504;5.316;2023-05-10T00:24:56;16.77;;;8.15;;
32521;SDS011;18963;51.504;5.316;2023-05-10T00:27:22;18.20;;;9.10;;
32521;SDS011;18963;51.504;5.316;2023-05-10T00:29:48;19.85;;;9.98;;
32521;SDS011;18963;51.504;5.316;2023-05-10T00:32:14;17.60;;;9.05;;
32521;SDS011;18963;51.504;5.316;2023-05-10T00:34:40;20.58;;;9.60;;
32521;SDS011;18963;51.504;5.316;2023-05-10T00:37:05;20.20;;;9.88;;
32521;SDS011;18963;51.504;5.316;2023-05-10T00:39:31;23.05;;;11.15;;
32521;SDS011;18963;51.504;5.316;2023-05-10T00:41:56;25.13;;;12.43;;
32521;SDS011;18963;51.504;5.316;2023-05-10T00:44:22;24.48;;;11.88;;
32521;SDS011;18963;51.504;5.316;2023-05-10T00:46:48;27.15;;;12.15;;
32521;SDS011;18963;51.504;5.316;2023-05-10T00:49:14;31.30;;;12.30;;
32521;SDS011;18963;51.504;5.316;2023-05-10T00:51:40;24.85;;;11.02;;
32521;SDS011;18963;51.504;5.316;2023-05-10T00:54:07;23.90;;;11.70;;
32521;SDS011;18963;51.504;5.316;2023-05-10T00:56:35;22.30;;;11.35;;
32521;SDS011;18963;51.504;5.316;2023-05-10T00:59:01;25.00;;;10.95;;
32521;SDS011;18963;51.504;5.316;2023-05-10T01:01:27;25.85;;;11.15;;
32521;SDS011;18963;51.504;5.316;2023-05-10T01:03:54;27.30;;;12.00;;
32521;SDS011;18963;51.504;5.316;2023-05-10T01:06:20;26.35;;;12.60;;
32521;SDS011;18963;51.504;5.316;2023-05-10T01:08:45;25.67;;;12.02;;
32521;SDS011;18963;51.504;5.316;2023-05-10T01:11:12;28.75;;;12.32;;
32521;SDS011;18963;51.504;5.316;2023-05-10T01:13:39;26.10;;;12.05;;
32521;SDS011;18963;51.504;5.316;2023-05-10T01:16:07;30.35;;;12.82;;
32521;SDS011;18963;51.504;5.316;2023-05-10T01:18:38;29.00;;;12.45;;
32521;SDS011;18963;51.504;5.316;2023-05-10T01:29:14;30.67;;;14.52;;
32521;SDS011;18963;51.504;5.316;2023-05-10T01:34:59;34.33;;;14.07;;
32521;SDS011;18963;51.504;5.316;2023-05-10T01:37:37;33.28;;;13.85;;
32521;SDS011;18963;51.504;5.316;2023-05-10T01:43:02;34.72;;;15.95;;
32521;SDS011;18963;51.504;5.316;2023-05-10T01:45:41;37.90;;;15.38;;
32521;SDS011;18963;51.504;5.316;2023-05-10T01:48:11;34.67;;;14.35;;
32521;SDS011;18963;51.504;5.316;2023-05-10T01:50:40;35.38;;;15.98;;
32521;SDS011;18963;51.504;5.316;2023-05-10T01:53:09;32.33;;;14.52;;
32521;SDS011;18963;51.504;5.316;2023-05-10T01:55:41;34.40;;;15.68;;
32521;SDS011;18963;51.504;5.316;2023-05-10T01:58:12;35.58;;;15.18;;
32521;SDS011;18963;51.504;5.316;2023-05-10T02:00:42;43.38;;;18.65;;
32521;SDS011;18963;51.504;5.316;2023-05-10T02:03:09;45.50;;;17.17;;
32521;SDS011;18963;51.504;5.316;2023-05-10T02:05:36;46.75;;;20.17;;
32521;SDS011;18963;51.504;5.316;2023-05-10T02:08:05;54.45;;;22.15;;
32521;SDS011;18963;51.504;5.316;2023-05-10T02:10:33;63.28;;;22.77;;
32521;SDS011;18963;51.504;5.316;2023-05-10T02:13:02;54.47;;;23.38;;
32521;SDS011;18963;51.504;5.316;2023-05-10T02:15:29;59.17;;;23.60;;
32521;SDS011;18963;51.504;5.316;2023-05-10T02:17:56;58.55;;;23.60;;
32521;SDS011;18963;51.504;5.316;2023-05-10T02:20:23;59.15;;;23.58;;
32521;SDS011;18963;51.504;5.316;2023-05-10T02:22:50;53.53;;;23.65;;
32521;SDS011;18963;51.504;5.316;2023-05-10T02:25:19;58.05;;;22.80;;
32521;SDS011;18963;51.504;5.316;2023-05-10T02:27:47;55.80;;;23.23;;
32521;SDS011;18963;51.504;5.316;2023-05-10T02:30:14;61.13;;;22.95;;
32521;SDS011;18963;51.504;5.316;2023-05-10T02:32:40;54.65;;;23.90;;
32521;SDS011;18963;51.504;5.316;2023-05-10T02:35:07;60.95;;;23.55;;
32521;SDS011;18963;51.504;5.316;2023-05-10T02:37:35;55.67;;;23.00;;
32521;SDS011;18963;51.504;5.316;2023-05-10T02:40:02;57.80;;;22.98;;
32521;SDS011;18963;51.504;5.316;2023-05-10T02:42:31;54.40;;;24.48;;
32521;SDS011;18963;51.504;5.316;2023-05-10T02:45:00;52.25;;;21.65;;
32521;SDS011;18963;51.504;5.316;2023-05-10T02:47:28;50.65;;;23.02;;
32521;SDS011;18963;51.504;5.316;2023-05-10T02:49:54;54.85;;;22.80;;
32521;SDS011;18963;51.504;5.316;2023-05-10T02:52:21;50.47;;;21.83;;
32521;SDS011;18963;51.504;5.316;2023-05-10T02:54:51;52.08;;;22.15;;
32521;SDS011;18963;51.504;5.316;2023-05-10T02:57:22;52.25;;;22.35;;
32521;SDS011;18963;51.504;5.316;2023-05-10T02:59:52;49.45;;;21.73;;
32521;SDS011;18963;51.504;5.316;2023-05-10T03:02:18;46.80;;;21.33;;
32521;SDS011;18963;51.504;5.316;2023-05-10T03:04:44;47.70;;;20.65;;
32521;SDS011;18963;51.504;5.316;2023-05-10T03:07:10;43.72;;;19.02;;
32521;SDS011;18963;51.504;5.316;2023-05-10T03:09:35;44.13;;;18.42;;
32521;SDS011;18963;51.504;5.316;2023-05-10T03:12:07;42.65;;;20.38;;
32521;SDS011;18963;51.504;5.316;2023-05-10T03:17:35;37.75;;;17.90;;
32521;SDS011;18963;51.504;5.316;2023-05-10T03:20:29;39.63;;;17.23;;
32521;SDS011;18963;51.504;5.316;2023-05-10T03:23:00;36.28;;;18.77;;
32521;SDS011;18963;51.504;5.316;2023-05-10T03:25:31;41.30;;;18.45;;
32521;SDS011;18963;51.504;5.316;2023-05-10T03:27:57;43.38;;;17.30;;
32521;SDS011;18963;51.504;5.316;2023-05-10T03:30:24;40.10;;;17.67;;
32521;SDS011;18963;51.504;5.316;2023-05-10T03:32:50;43.60;;;17.20;;
32521;SDS011;18963;51.504;5.316;2023-05-10T03:35:16;36.10;;;15.95;;
32521;SDS011;18963;51.504;5.316;2023-05-10T03:37:41;39.90;;;16.27;;
32521;SDS011;18963;51.504;5.316;2023-05-10T03:40:07;38.53;;;19.02;;
32521;SDS011;18963;51.504;5.316;2023-05-10T03:42:34;40.03;;;16.98;;
32521;SDS011;18963;51.504;5.316;2023-05-10T03:45:00;34.85;;;16.75;;
32521;SDS011;18963;51.504;5.316;2023-05-10T03:47:26;41.63;;;18.30;;
32521;SDS011;18963;51.504;5.316;2023-05-10T03:49:51;43.00;;;17.15;;
32521;SDS011;18963;51.504;5.316;2023-05-10T03:52:17;51.33;;;19.90;;
32521;SDS011;18963;51.504;5.316;2023-05-10T03:54:43;43.97;;;19.33;;
32521;SDS011;18963;51.504;5.316;2023-05-10T03:57:08;56.60;;;20.98;;
32521;SDS011;18963;51.504;5.316;2023-05-10T03:59:34;49.70;;;20.42;;
32521;SDS011;18963;51.504;5.316;2023-05-10T04:02:00;57.42;;;23.88;;
32521;SDS011;18963;51.504;5.316;2023-05-10T04:04:25;61.58;;;23.40;;
32521;SDS011;18963;51.504;5.316;2023-05-10T04:06:51;70.93;;;25.15;;
32521;SDS011;18963;51.504;5.316;2023-05-10T04:09:17;64.55;;;24.08;;
32521;SDS011;18963;51.504;5.316;2023-05-10T04:11:43;63.70;;;23.80;;
32521;SDS011;18963;51.504;5.316;2023-05-10T04:14:08;65.38;;;22.80;;
32521;SDS011;18963;51.504;5.316;2023-05-10T04:16:34;64.72;;;23.55;;
32521;SDS011;18963;51.504;5.316;2023-05-10T04:18:59;57.70;;;22.02;;
32521;SDS011;18963;51.504;5.316;2023-05-10T04:21:25;56.17;;;20.45;;
32521;SDS011;18963;51.504;5.316;2023-05-10T04:23:51;52.65;;;20.73;;
32521;SDS011;18963;51.504;5.316;2023-05-10T04:26:16;50.40;;;20.13;;
32521;SDS011;18963;51.504;5.316;2023-05-10T04:28:42;46.17;;;18.52;;
32521;SDS011;18963;51.504;5.316;2023-05-10T04:31:08;45.85;;;17.52;;
32521;SDS011;18963;51.504;5.316;2023-05-10T04:33:34;39.97;;;17.30;;
32521;SDS011;18963;51.504;5.316;2023-05-10T04:36:01;37.65;;;16.80;;
32521;SDS011;18963;51.504;5.316;2023-05-10T04:38:27;35.67;;;16.10;;
32521;SDS011;18963;51.504;5.316;2023-05-10T04:40:53;35.42;;;15.80;;
32521;SDS011;18963;51.504;5.316;2023-05-10T04:43:18;34.28;;;14.55;;
32521;SDS011;18963;51.504;5.316;2023-05-10T04:45:45;35.38;;;13.65;;
32521;SDS011;18963;51.504;5.316;2023-05-10T04:48:11;32.22;;;14.07;;
32521;SDS011;18963;51.504;5.316;2023-05-10T04:50:37;28.90;;;13.38;;
32521;SDS011;18963;51.504;5.316;2023-05-10T04:53:03;33.63;;;13.50;;
32521;SDS011;18963;51.504;5.316;2023-05-10T04:55:29;33.08;;;13.77;;
32521;SDS011;18963;51.504;5.316;2023-05-10T04:57:55;32.50;;;13.32;;
32521;SDS011;18963;51.504;5.316;2023-05-10T05:00:22;33.58;;;14.15;;
32521;SDS011;18963;51.504;5.316;2023-05-10T05:02:48;30.67;;;14.02;;
32521;SDS011;18963;51.504;5.316;2023-05-10T05:05:14;29.40;;;12.55;;
32521;SDS011;18963;51.504;5.316;2023-05-10T05:07:39;35.50;;;14.75;;
32521;SDS011;18963;51.504;5.316;2023-05-10T05:10:06;28.85;;;12.40;;
32521;SDS011;18963;51.504;5.316;2023-05-10T05:12:32;25.02;;;13.02;;
32521;SDS011;18963;51.504;5.316;2023-05-10T05:14:58;31.15;;;13.65;;
32521;SDS011;18963;51.504;5.316;2023-05-10T05:17:24;30.33;;;13.23;;
32521;SDS011;18963;51.504;5.316;2023-05-10T05:19:49;37.47;;;15.15;;
32521;SDS011;18963;51.504;5.316;2023-05-10T05:22:15;31.17;;;14.10;;
32521;SDS011;18963;51.504;5.316;2023-05-10T05:24:40;36.15;;;14.23;;
32521;SDS011;18963;51.504;5.316;2023-05-10T05:27:06;25.65;;;12.70;;
32521;SDS011;18963;51.504;5.316;2023-05-10T05:29:32;25.65;;;13.20;;
32521;SDS011;18963;51.504;5.316;2023-05-10T05:31:58;25.25;;;12.25;;
32521;SDS011;18963;51.504;5.316;2023-05-10T05:34:23;29.15;;;13.73;;
32521;SDS011;18963;51.504;5.316;2023-05-10T05:36:49;27.25;;;12.70;;
32521;SDS011;18963;51.504;5.316;2023-05-10T05:39:15;28.67;;;14.27;;
32521;SDS011;18963;51.504;5.316;2023-05-10T05:41:41;28.88;;;13.18;;
32521;SDS011;18963;51.504;5.316;2023-05-10T05:44:07;33.20;;;13.40;;
32521;SDS011;18963;51.504;5.316;2023-05-10T05:46:33;31.17;;;14.15;;
32521;SDS011;18963;51.504;5.316;2023-05-10T05:48:58;27.70;;;13.82;;
32521;SDS011;18963;51.504;5.316;2023-05-10T05:51:24;28.45;;;12.63;;
32521;SDS011;18963;51.504;5.316;2023-05-10T05:53:50;31.85;;;13.98;;
32521;SDS011;18963;51.504;5.316;2023-05-10T05:56:15;30.40;;;13.73;;
32521;SDS011;18963;51.504;5.316;2023-05-10T05:58:42;30.90;;;13.63;;
32521;SDS011;18963;51.504;5.316;2023-05-10T06:01:08;28.58;;;14.77;;
32521;SDS011;18963;51.504;5.316;2023-05-10T06:03:34;30.02;;;13.95;;
32521;SDS011;18963;51.504;5.316;2023-05-10T06:05:59;28.73;;;14.13;;
32521;SDS011;18963;51.504;5.316;2023-05-10T06:08:25;31.95;;;13.50;;
32521;SDS011;18963;51.504;5.316;2023-05-10T06:10:51;26.05;;;13.70;;
32521;SDS011;18963;51.504;5.316;2023-05-10T06:13:16;31.60;;;14.13;;
32521;SDS011;18963;51.504;5.316;2023-05-10T06:15:42;27.67;;;13.55;;
32521;SDS011;18963;51.504;5.316;2023-05-10T06:18:07;30.77;;;14.13;;
32521;SDS011;18963;51.504;5.316;2023-05-10T06:20:33;31.25;;;14.30;;
32521;SDS011;18963;51.504;5.316;2023-05-10T06:22:58;30.85;;;13.73;;
32521;SDS011;18963;51.504;5.316;2023-05-10T06:25:24;28.00;;;14.90;;
32521;SDS011;18963;51.504;5.316;2023-05-10T06:27:50;30.73;;;14.68;;
32521;SDS011;18963;51.504;5.316;2023-05-10T06:30:15;32.38;;;15.20;;
32521;SDS011;18963;51.504;5.316;2023-05-10T06:32:41;29.42;;;14.07;;
32521;SDS011;18963;51.504;5.316;2023-05-10T06:35:08;36.42;;;14.73;;
32521;SDS011;18963;51.504;5.316;2023-05-10T06:37:34;31.27;;;14.60;;
32521;SDS011;18963;51.504;5.316;2023-05-10T06:40:00;32.05;;;14.75;;
32521;SDS011;18963;51.504;5.316;2023-05-10T06:42:26;33.50;;;15.55;;
32521;SDS011;18963;51.504;5.316;2023-05-10T06:44:52;30.95;;;15.00;;
32521;SDS011;18963;51.504;5.316;2023-05-10T06:47:18;27.63;;;14.05;;
32521;SDS011;18963;51.504;5.316;2023-05-10T06:49:43;27.02;;;13.10;;
32521;SDS011;18963;51.504;5.316;2023-05-10T06:52:09;29.73;;;13.48;;
32521;SDS011;18963;51.504;5.316;2023-05-10T06:54:34;29.08;;;14.25;;
32521;SDS011;18963;51.504;5.316;2023-05-10T06:57:00;30.27;;;14.20;;
32521;SDS011;18963;51.504;5.316;2023-05-10T06:59:27;29.75;;;12.88;;
32521;SDS011;18963;51.504;5.316;2023-05-10T07:01:53;27.98;;;12.73;;
32521;SDS011;18963;51.504;5.316;2023-05-10T07:04:19;25.98;;;12.07;;
32521;SDS011;18963;51.504;5.316;2023-05-10T07:06:44;26.63;;;12.98;;
32521;SDS011;18963;51.504;5.316;2023-05-10T07:09:11;26.45;;;13.13;;
32521;SDS011;18963;51.504;5.316;2023-05-10T07:11:37;24.17;;;11.43;;
32521;SDS011;18963;51.504;5.316;2023-05-10T07:14:03;22.75;;;11.20;;
32521;SDS011;18963;51.504;5.316;2023-05-10T07:16:29;22.08;;;10.02;;
32521;SDS011;18963;51.504;5.316;2023-05-10T07:18:54;24.33;;;9.80;;
32521;SDS011;18963;51.504;5.316;2023-05-10T07:21:20;19.95;;;10.13;;
32521;SDS011;18963;51.504;5.316;2023-05-10T07:23:48;18.58;;;8.65;;
32521;SDS011;18963;51.504;5.316;2023-05-10T07:26:14;18.33;;;9.13;;
32521;SDS011;18963;51.504;5.316;2023-05-10T07:28:40;17.75;;;8.93;;
32521;SDS011;18963;51.504;5.316;2023-05-10T07:31:06;17.90;;;7.40;;
32521;SDS011;18963;51.504;5.316;2023-05-10T07:33:32;16.00;;;7.75;;
32521;SDS011;18963;51.504;5.316;2023-05-10T07:35:57;16.50;;;6.93;;
32521;SDS011;18963;51.504;5.316;2023-05-10T07:38:23;16.58;;;7.30;;
32521;SDS011;18963;51.504;5.316;2023-05-10T07:40:48;14.23;;;7.15;;
32521;SDS011;18963;51.504;5.316;2023-05-10T07:43:14;13.95;;;6.97;;
32521;SDS011;18963;51.504;5.316;2023-05-10T07:45:39;15.55;;;7.32;;
32521;SDS011;18963;51.504;5.316;2023-05-10T07:48:05;14.82;;;7.75;;
32521;SDS011;18963;51.504;5.316;2023-05-10T07:50:30;14.90;;;7.70;;
32521;SDS011;18963;51.504;5.316;2023-05-10T07:52:56;13.55;;;7.20;;
32521;SDS011;18963;51.504;5.316;2023-05-10T07:55:22;15.50;;;7.80;;
32521;SDS011;18963;51.504;5.316;2023-05-10T07:57:47;16.02;;;7.10;;
32521;SDS011;18963;51.504;5.316;2023-05-10T08:00:13;13.95;;;6.30;;
32521;SDS011;18963;51.504;5.316;2023-05-10T08:02:42;11.40;;;5.88;;
32521;SDS011;18963;51.504;5.316;2023-05-10T08:05:08;16.90;;;7.25;;
32521;SDS011;18963;51.504;5.316;2023-05-10T08:07:34;12.50;;;6.80;;
32521;SDS011;18963;51.504;5.316;2023-05-10T08:10:00;9.93;;;5.75;;
32521;SDS011;18963;51.504;5.316;2023-05-10T08:12:27;12.27;;;5.75;;
32521;SDS011;18963;51.504;5.316;2023-05-10T08:14:52;9.82;;;5.57;;
32521;SDS011;18963;51.504;5.316;2023-05-10T08:17:18;11.95;;;6.18;;
32521;SDS011;18963;51.504;5.316;2023-05-10T08:19:43;8.95;;;4.78;;
32521;SDS011;18963;51.504;5.316;2023-05-10T08:22:09;10.95;;;5.70;;
32521;SDS011;18963;51.504;5.316;2023-05-10T08:24:35;10.98;;;5.07;;
32521;SDS011;18963;51.504;5.316;2023-05-10T08:27:03;13.07;;;6.03;;
32521;SDS011;18963;51.504;5.316;2023-05-10T08:29:32;12.23;;;5.90;;
32521;SDS011;18963;51.504;5.316;2023-05-10T08:31:58;11.50;;;5.40;;
32521;SDS011;18963;51.504;5.316;2023-05-10T08:34:24;12.38;;;5.97;;
32521;SDS011;18963;51.504;5.316;2023-05-10T08:36:49;11.32;;;5.60;;
32521;SDS011;18963;51.504;5.316;2023-05-10T08:39:15;9.55;;;5.15;;
32521;SDS011;18963;51.504;5.316;2023-05-10T08:41:41;9.43;;;5.07;;
32521;SDS011;18963;51.504;5.316;2023-05-10T08:44:09;7.75;;;4.43;;
32521;SDS011;18963;51.504;5.316;2023-05-10T08:46:36;8.32;;;3.88;;
32521;SDS011;18963;51.504;5.316;2023-05-10T08:49:04;8.02;;;4.03;;
32521;SDS011;18963;51.504;5.316;2023-05-10T08:51:34;6.90;;;3.65;;
32521;SDS011;18963;51.504;5.316;2023-05-10T08:54:02;7.97;;;3.65;;
32521;SDS011;18963;51.504;5.316;2023-05-10T08:56:28;8.35;;;3.92;;
32521;SDS011;18963;51.504;5.316;2023-05-10T08:58:54;9.05;;;3.92;;
32521;SDS011;18963;51.504;5.316;2023-05-10T09:01:21;6.78;;;3.80;;
32521;SDS011;18963;51.504;5.316;2023-05-10T09:03:47;7.05;;;3.88;;
32521;SDS011;18963;51.504;5.316;2023-05-10T09:06:13;7.47;;;3.72;;
32521;SDS011;18963;51.504;5.316;2023-05-10T09:08:41;7.38;;;4.03;;
32521;SDS011;18963;51.504;5.316;2023-05-10T09:11:07;8.25;;;3.50;;
32521;SDS011;18963;51.504;5.316;2023-05-10T09:13:35;9.20;;;4.72;;
32521;SDS011;18963;51.504;5.316;2023-05-10T09:16:02;8.02;;;3.75;;
32521;SDS011;18963;51.504;5.316;2023-05-10T09:18:28;7.55;;;3.83;;
32521;SDS011;18963;51.504;5.316;2023-05-10T09:20:54;7.40;;;3.47;;
32521;SDS011;18963;51.504;5.316;2023-05-10T09:23:20;8.70;;;4.22;;
32521;SDS011;18963;51.504;5.316;2023-05-10T09:25:45;7.35;;;3.90;;
32521;SDS011;18963;51.504;5.316;2023-05-10T09:28:11;6.72;;;3.53;;
32521;SDS011;18963;51.504;5.316;2023-05-10T09:30:37;7.30;;;3.40;;
32521;SDS011;18963;51.504;5.316;2023-05-10T09:33:04;6.97;;;2.90;;
32521;SDS011;18963;51.504;5.316;2023-05-10T09:35:30;7.78;;;2.50;;
32521;SDS011;18963;51.504;5.316;2023-05-10T09:38:00;5.90;;;2.63;;
32521;SDS011;18963;51.504;5.316;2023-05-10T09:40:28;5.72;;;2.90;;
32521;SDS011;18963;51.504;5.316;2023-05-10T09:42:55;8.57;;;3.17;;
32521;SDS011;18963;51.504;5.316;2023-05-10T09:45:31;6.95;;;3.50;;
32521;SDS011;18963;51.504;5.316;2023-05-10T09:47:59;5.57;;;2.75;;
32521;SDS011;18963;51.504;5.316;2023-05-10T09:50:25;6.32;;;3.05;;
32521;SDS011;18963;51.504;5.316;2023-05-10T09:52:55;5.95;;;3.22;;
32521;SDS011;18963;51.504;5.316;2023-05-10T09:55:25;6.43;;;2.90;;
32521;SDS011;18963;51.504;5.316;2023-05-10T09:58:02;6.95;;;3.30;;
32521;SDS011;18963;51.504;5.316;2023-05-10T10:00:33;6.97;;;3.20;;
32521;SDS011;18963;51.504;5.316;2023-05-10T10:03:00;7.65;;;3.17;;
32521;SDS011;18963;51.504;5.316;2023-05-10T10:05:30;7.60;;;3.58;;
32521;SDS011;18963;51.504;5.316;2023-05-10T10:08:01;7.25;;;3.83;;
32521;SDS011;18963;51.504;5.316;2023-05-10T10:10:29;7.78;;;4.47;;
32521;SDS011;18963;51.504;5.316;2023-05-10T10:12:56;8.13;;;3.60;;
32521;SDS011;18963;51.504;5.316;2023-05-10T10:15:22;7.88;;;3.90;;
32521;SDS011;18963;51.504;5.316;2023-05-10T10:17:48;6.32;;;3.42;;
32521;SDS011;18963;51.504;5.316;2023-05-10T10:20:15;8.15;;;4.05;;
32521;SDS011;18963;51.504;5.316;2023-05-10T10:22:41;7.43;;;3.78;;
32521;SDS011;18963;51.504;5.316;2023-05-10T10:25:09;8.05;;;4.40;;
32521;SDS011;18963;51.504;5.316;2023-05-10T10:27:43;7.90;;;4.22;;
32521;SDS011;18963;51.504;5.316;2023-05-10T10:36:15;7.38;;;4.85;;
32521;SDS011;18963;51.504;5.316;2023-05-10T10:57:32;9.77;;;4.60;;
32521;SDS011;18963;51.504;5.316;2023-05-10T11:00:17;8.23;;;5.10;;
32521;SDS011;18963;51.504;5.316;2023-05-10T11:02:47;8.77;;;5.55;;
32521;SDS011;18963;51.504;5.316;2023-05-10T11:08:01;9.82;;;5.95;;
32521;SDS011;18963;51.504;5.316;2023-05-10T11:13:40;8.95;;;5.30;;
32521;SDS011;18963;51.504;5.316;2023-05-10T11:16:10;10.02;;;5.50;;
32521;SDS011;18963;51.504;5.316;2023-05-10T11:18:53;8.32;;;5.63;;
32521;SDS011;18963;51.504;5.316;2023-05-10T11:21:22;8.40;;;5.35;;
32521;SDS011;18963;51.504;5.316;2023-05-10T11:23:53;9.25;;;5.30;;
32521;SDS011;18963;51.504;5.316;2023-05-10T11:26:29;8.98;;;5.38;;
32521;SDS011;18963;51.504;5.316;2023-05-10T11:28:56;11.32;;;6.78;;
32521;SDS011;18963;51.504;5.316;2023-05-10T11:31:23;8.98;;;6.22;;
32521;SDS011;18963;51.504;5.316;2023-05-10T11:33:52;10.27;;;6.25;;
32521;SDS011;18963;51.504;5.316;2023-05-10T11:36:19;11.80;;;6.18;;
32521;SDS011;18963;51.504;5.316;2023-05-10T11:38:47;10.32;;;6.28;;
32521;SDS011;18963;51.504;5.316;2023-05-10T11:41:16;13.82;;;7.22;;
32521;SDS011;18963;51.504;5.316;2023-05-10T11:43:43;13.98;;;8.00;;
32521;SDS011;18963;51.504;5.316;2023-05-10T11:46:12;11.55;;;7.50;;
32521;SDS011;18963;51.504;5.316;2023-05-10T11:48:38;13.25;;;8.70;;
32521;SDS011;18963;51.504;5.316;2023-05-10T11:51:05;12.00;;;7.95;;
32521;SDS011;18963;51.504;5.316;2023-05-10T11:53:32;14.63;;;8.90;;
32521;SDS011;18963;51.504;5.316;2023-05-10T11:56:07;12.93;;;8.65;;
32521;SDS011;18963;51.504;5.316;2023-05-10T11:58:34;11.95;;;8.15;;
32521;SDS011;18963;51.504;5.316;2023-05-10T12:01:01;19.08;;;9.27;;
32521;SDS011;18963;51.504;5.316;2023-05-10T12:03:28;15.80;;;8.98;;
32521;SDS011;18963;51.504;5.316;2023-05-10T12:05:54;14.82;;;8.95;;
32521;SDS011;18963;51.504;5.316;2023-05-10T12:08:24;12.00;;;7.80;;
32521;SDS011;18963;51.504;5.316;2023-05-10T12:10:51;14.00;;;8.13;;
32521;SDS011;18963;51.504;5.316;2023-05-10T12:13:18;11.32;;;6.30;;
32521;SDS011;18963;51.504;5.316;2023-05-10T12:15:45;11.95;;;6.50;;
32521;SDS011;18963;51.504;5.316;2023-05-10T12:18:12;9.95;;;5.88;;
32521;SDS011;18963;51.504;5.316;2023-05-10T12:20:38;12.73;;;5.93;;
32521;SDS011;18963;51.504;5.316;2023-05-10T12:23:05;12.48;;;6.10;;
32521;SDS011;18963;51.504;5.316;2023-05-10T12:25:33;36.00;;;23.30;;
32521;SDS011;18963;51.504;5.316;2023-05-10T12:28:02;14.05;;;10.15;;
32521;SDS011;18963;51.504;5.316;2023-05-10T12:30:30;13.38;;;8.27;;
32521;SDS011;18963;51.504;5.316;2023-05-10T12:33:02;12.95;;;7.85;;
32521;SDS011;18963;51.504;5.316;2023-05-10T12:41:13;23.63;;;13.55;;
32521;SDS011;18963;51.504;5.316;2023-05-10T12:43:40;23.92;;;12.90;;
32521;SDS011;18963;51.504;5.316;2023-05-10T12:48:32;29.10;;;21.00;;
32521;SDS011;18963;51.504;5.316;2023-05-10T12:50:59;25.13;;;15.02;;
32521;SDS011;18963;51.504;5.316;2023-05-10T12:53:25;30.52;;;16.02;;
32521;SDS011;18963;51.504;5.316;2023-05-10T12:55:51;24.30;;;13.63;;
32521;SDS011;18963;51.504;5.316;2023-05-10T12:58:16;23.75;;;12.25;;
32521;SDS011;18963;51.504;5.316;2023-05-10T13:00:42;21.67;;;12.82;;
32521;SDS011;18963;51.504;5.316;2023-05-10T13:03:08;23.52;;;14.80;;
32521;SDS011;18963;51.504;5.316;2023-05-10T13:05:35;38.08;;;25.73;;
32521;SDS011;18963;51.504;5.316;2023-05-10T13:08:01;24.95;;;13.30;;
32521;SDS011;18963;51.504;5.316;2023-05-10T13:10:29;26.40;;;12.90;;
32521;SDS011;18963;51.504;5.316;2023-05-10T13:12:55;24.60;;;12.73;;
32521;SDS011;18963;51.504;5.316;2023-05-10T13:15:22;25.13;;;12.82;;
32521;SDS011;18963;51.504;5.316;2023-05-10T13:17:47;24.73;;;11.90;;
32521;SDS011;18963;51.504;5.316;2023-05-10T13:20:13;25.70;;;12.68;;
32521;SDS011;18963;51.504;5.316;2023-05-10T13:22:39;21.00;;;11.45;;
32521;SDS011;18963;51.504;5.316;2023-05-10T13:25:05;21.63;;;11.77;;
32521;SDS011;18963;51.504;5.316;2023-05-10T13:27:31;20.63;;;11.95;;
32521;SDS011;18963;51.504;5.316;2023-05-10T13:29:57;21.25;;;11.38;;
32521;SDS011;18963;51.504;5.316;2023-05-10T13:32:24;21.02;;;10.23;;
32521;SDS011;18963;51.504;5.316;2023-05-10T13:34:50;19.02;;;10.55;;
32521;SDS011;18963;51.504;5.316;2023-05-10T13:37:16;22.00;;;10.10;;
32521;SDS011;18963;51.504;5.316;2023-05-10T13:39:42;17.77;;;9.55;;
32521;SDS011;18963;51.504;5.316;2023-05-10T13:42:07;16.17;;;9.38;;
32521;SDS011;18963;51.504;5.316;2023-05-10T13:44:33;18.95;;;9.25;;
32521;SDS011;18963;51.504;5.316;2023-05-10T13:46:59;17.58;;;7.95;;
32521;SDS011;18963;51.504;5.316;2023-05-10T13:49:24;19.40;;;9.82;;
32521;SDS011;18963;51.504;5.316;2023-05-10T13:51:50;15.63;;;8.00;;
32521;SDS011;18963;51.504;5.316;2023-05-10T13:54:16;19.08;;;8.93;;
32521;SDS011;18963;51.504;5.316;2023-05-10T13:56:44;17.55;;;9.02;;
32521;SDS011;18963;51.504;5.316;2023-05-10T13:59:10;14.88;;;7.72;;
32521;SDS011;18963;51.504;5.316;2023-05-10T14:01:35;18.13;;;10.60;;
32521;SDS011;18963;51.504;5.316;2023-05-10T14:04:01;18.33;;;9.38;;
32521;SDS011;18963;51.504;5.316;2023-05-10T14:06:27;19.70;;;9.90;;
32521;SDS011;18963;51.504;5.316;2023-05-10T14:08:53;19.00;;;10.13;;
32521;SDS011;18963;51.504;5.316;2023-05-10T14:11:18;22.75;;;9.73;;
32521;SDS011;18963;51.504;5.316;2023-05-10T14:13:44;22.25;;;9.73;;
32521;SDS011;18963;51.504;5.316;2023-05-10T14:16:10;21.08;;;9.93;;
32521;SDS011;18963;51.504;5.316;2023-05-10T14:18:36;18.92;;;9.70;;
32521;SDS011;18963;51.504;5.316;2023-05-10T14:21:02;17.65;;;9.30;;
32521;SDS011;18963;51.504;5.316;2023-05-10T14:23:28;16.27;;;7.95;;
32521;SDS011;18963;51.504;5.316;2023-05-10T14:25:55;16.10;;;8.50;;
32521;SDS011;18963;51.504;5.316;2023-05-10T14:28:20;17.05;;;8.27;;
32521;SDS011;18963;51.504;5.316;2023-05-10T14:30:47;22.23;;;9.52;;
32521;SDS011;18963;51.504;5.316;2023-05-10T14:33:13;21.65;;;8.85;;
32521;SDS011;18963;51.504;5.316;2023-05-10T14:35:39;16.17;;;8.13;;
32521;SDS011;18963;51.504;5.316;2023-05-10T14:38:04;17.75;;;8.27;;
32521;SDS011;18963;51.504;5.316;2023-05-10T14:40:30;15.68;;;7.93;;
32521;SDS011;18963;51.504;5.316;2023-05-10T14:42:56;16.02;;;7.57;;
32521;SDS011;18963;51.504;5.316;2023-05-10T14:45:21;12.43;;;6.57;;
32521;SDS011;18963;51.504;5.316;2023-05-10T14:47:48;14.68;;;7.70;;
32521;SDS011;18963;51.504;5.316;2023-05-10T14:50:14;14.38;;;6.97;;
32521;SDS011;18963;51.504;5.316;2023-05-10T14:52:41;13.30;;;7.15;;
32521;SDS011;18963;51.504;5.316;2023-05-10T14:55:07;14.10;;;7.35;;
32521;SDS011;18963;51.504;5.316;2023-05-10T14:57:33;14.77;;;7.63;;
32521;SDS011;18963;51.504;5.316;2023-05-10T14:59:58;14.25;;;7.55;;
32521;SDS011;18963;51.504;5.316;2023-05-10T15:02:24;14.68;;;7.07;;
32521;SDS011;18963;51.504;5.316;2023-05-10T15:04:50;14.38;;;7.43;;
32521;SDS011;18963;51.504;5.316;2023-05-10T15:07:15;13.98;;;7.35;;
32521;SDS011;18963;51.504;5.316;2023-05-10T15:09:43;12.88;;;6.50;;
32521;SDS011;18963;51.504;5.316;2023-05-10T15:12:09;12.57;;;7.47;;
32521;SDS011;18963;51.504;5.316;2023-05-10T15:14:34;13.75;;;6.10;;
32521;SDS011;18963;51.504;5.316;2023-05-10T15:17:01;12.05;;;6.90;;
32521;SDS011;18963;51.504;5.316;2023-05-10T15:19:27;15.00;;;7.78;;
32521;SDS011;18963;51.504;5.316;2023-05-10T15:21:54;15.20;;;7.78;;
32521;SDS011;18963;51.504;5.316;2023-05-10T15:24:20;15.48;;;7.70;;